Time;durP1;ratioP1;P1;durP2;ratioP2;P2;SDS_P1;SDS_P2;PMS_P1;PMS_P2;Temp;Humidity;BMP_temperature;BMP_pressure;BME280_temperature;BME280_humidity;BME280_pressure;Samples;Min_cycle;Max_cycle;Signal;HPM_P1;HPM_P2
2022/09/21 00:01:30;;;;;;;3.30;1.98;;;9.70;99.90;;;;;;4959679;28;20390;-85
2022/09/21 00:04:00;;;;;;;3.03;1.90;;;9.70;99.90;;;;;;4964915;28;20479;-85
2022/09/21 00:06:30;;;;;;;4.27;1.90;;;9.70;99.90;;;;;;4979400;28;20402;-85
2022/09/21 00:08:58;;;;;;;3.97;2.10;;;9.70;99.90;;;;;;4963929;28;20402;-85
2022/09/21 00:11:28;;;;;;;4.10;2.30;;;9.70;99.90;;;;;;4956234;28;20403;-84
2022/09/21 00:14:03;;;;;;;2.40;2.03;;;9.60;99.90;;;;;;4960868;28;20439;-85
2022/09/21 00:16:31;;;;;;;4.18;2.10;;;9.70;99.90;;;;;;4961866;28;20411;-86
2022/09/21 00:18:59;;;;;;;3.47;2.20;;;9.60;99.90;;;;;;4961101;28;20410;-86
2022/09/21 00:21:27;;;;;;;2.28;1.80;;;9.60;99.90;;;;;;4954378;28;20502;-85
2022/09/21 00:23:55;;;;;;;2.33;1.90;;;9.60;99.90;;;;;;4977426;28;20412;-86
2022/09/21 00:26:25;;;;;;;5.93;2.20;;;9.60;99.90;;;;;;4968347;28;20424;-83
2022/09/21 00:28:54;;;;;;;2.05;1.80;;;9.60;99.90;;;;;;4978110;28;20427;-85
2022/09/21 00:31:23;;;;;;;2.47;2.00;;;9.60;99.90;;;;;;4960021;28;20469;-85
2022/09/21 00:33:51;;;;;;;3.30;1.92;;;9.60;99.90;;;;;;4964430;28;20395;-84
2022/09/21 00:36:21;;;;;;;3.25;2.05;;;9.70;99.90;;;;;;4962458;28;20486;-85
2022/09/21 00:38:51;;;;;;;4.23;2.27;;;9.60;99.90;;;;;;4962313;28;20740;-84
2022/09/21 00:41:19;;;;;;;3.28;1.95;;;9.70;99.90;;;;;;4962536;28;20390;-84
2022/09/21 00:44:12;;;;;;;4.50;2.10;;;9.70;99.90;;;;;;4966493;28;20410;-85
2022/09/21 00:46:41;;;;;;;5.13;2.38;;;9.70;99.90;;;;;;4962524;28;20402;-83
2022/09/21 00:49:08;;;;;;;3.65;2.53;;;9.70;99.90;;;;;;4959790;28;20418;-86
2022/09/21 00:51:36;;;;;;;3.53;2.20;;;9.60;99.90;;;;;;4962778;28;20779;-85
2022/09/21 00:54:11;;;;;;;5.13;2.40;;;9.60;99.90;;;;;;4962498;28;20904;-85
2022/09/21 00:56:40;;;;;;;5.63;2.28;;;9.70;99.90;;;;;;4976741;28;20389;-85
2022/09/21 00:59:08;;;;;;;10.88;2.17;;;9.60;99.90;;;;;;4964512;28;20497;-84
2022/09/21 01:01:37;;;;;;;5.03;2.53;;;9.60;99.90;;;;;;4955505;28;20416;-84
2022/09/21 01:04:06;;;;;;;4.72;2.35;;;9.60;99.90;;;;;;4953111;29;20480;-85
2022/09/21 01:06:36;;;;;;;3.08;2.10;;;9.70;99.90;;;;;;4979003;28;20777;-83
2022/09/21 01:09:04;;;;;;;3.30;2.28;;;9.60;99.90;;;;;;4953891;28;20468;-86
2022/09/21 01:11:56;;;;;;;3.03;2.10;;;9.70;99.90;;;;;;4959202;28;20481;-84
2022/09/21 01:14:37;;;;;;;4.30;2.50;;;9.70;99.90;;;;;;4981241;28;20442;-84
2022/09/21 01:17:15;;;;;;;3.17;2.53;;;9.70;99.90;;;;;;4960968;28;20813;-84
2022/09/21 01:20:12;;;;;;;3.35;2.70;;;9.70;99.90;;;;;;4970430;28;20455;-85
2022/09/21 01:23:13;;;;;;;4.00;2.50;;;9.70;99.90;;;;;;4963792;28;20438;-84
2022/09/21 01:25:53;;;;;;;4.57;2.70;;;9.70;99.90;;;;;;4962884;28;20482;-86
2022/09/21 01:28:58;;;;;;;2.70;2.40;;;9.70;99.90;;;;;;4984627;28;20410;-85
2022/09/21 01:31:32;;;;;;;4.55;2.40;;;9.60;99.90;;;;;;4961949;28;20414;-83
2022/09/21 01:34:07;;;;;;;5.65;3.38;;;9.60;99.90;;;;;;4974158;28;20399;-85
2022/09/21 01:36:37;;;;;;;2.70;2.15;;;9.60;99.90;;;;;;4980057;28;20794;-83
2022/09/21 01:39:11;;;;;;;3.88;2.60;;;9.60;99.90;;;;;;4980039;28;20401;-83
2022/09/21 01:41:42;;;;;;;4.15;2.30;;;9.60;99.90;;;;;;4967323;28;20407;-84
2022/09/21 01:44:14;;;;;;;3.00;2.20;;;9.60;99.90;;;;;;4966956;28;20406;-85
2022/09/21 01:46:44;;;;;;;3.08;2.10;;;9.60;99.90;;;;;;4965815;28;20496;-83
2022/09/21 01:49:16;;;;;;;3.92;2.42;;;9.50;99.90;;;;;;4964741;28;20436;-85
2022/09/21 01:51:50;;;;;;;5.90;2.90;;;9.50;99.90;;;;;;4966903;28;20415;-85
2022/09/21 01:54:27;;;;;;;4.07;2.63;;;9.40;99.90;;;;;;4965031;28;20436;-83
2022/09/21 01:57:01;;;;;;;4.73;2.40;;;9.50;99.90;;;;;;4962563;28;20404;-83
2022/09/21 01:59:31;;;;;;;5.05;2.20;;;9.50;99.90;;;;;;4955966;29;20395;-83
2022/09/21 02:02:08;;;;;;;3.55;2.85;;;9.50;99.90;;;;;;4979563;28;20407;-84
2022/09/21 02:04:36;;;;;;;3.65;2.53;;;9.40;99.90;;;;;;4979741;28;20419;-84
2022/09/21 02:07:05;;;;;;;3.85;2.60;;;9.40;99.90;;;;;;4979324;28;20414;-84
2022/09/21 02:09:36;;;;;;;3.53;2.50;;;9.50;99.90;;;;;;4979563;28;20916;-83
2022/09/21 02:12:04;;;;;;;4.22;2.80;;;9.50;99.90;;;;;;4975310;28;20449;-84
2022/09/21 02:14:35;;;;;;;3.25;2.38;;;9.50;99.90;;;;;;4980529;28;20501;-85
2022/09/21 02:17:10;;;;;;;3.42;2.20;;;9.50;99.90;;;;;;4964405;28;21089;-85
2022/09/21 02:20:02;;;;;;;2.95;2.30;;;9.50;99.90;;;;;;4979340;28;20407;-83
2022/09/21 02:22:48;;;;;;;4.75;2.70;;;9.50;99.90;;;;;;4980361;28;20437;-84
2022/09/21 02:25:26;;;;;;;6.77;2.83;;;9.50;99.90;;;;;;4965371;28;20406;-84
2022/09/21 02:27:57;;;;;;;3.03;2.22;;;9.50;99.90;;;;;;4968265;28;20414;-85
2022/09/21 02:30:26;;;;;;;4.43;2.58;;;9.50;99.90;;;;;;4964074;28;20421;-85
2022/09/21 02:33:04;;;;;;;4.20;2.60;;;9.50;99.90;;;;;;4963917;28;20473;-83
2022/09/21 02:35:39;;;;;;;3.90;3.13;;;9.50;99.90;;;;;;4960638;28;20891;-85
2022/09/21 02:38:46;;;;;;;5.57;2.67;;;9.40;99.90;;;;;;4964363;28;20408;-85
2022/09/21 02:41:18;;;;;;;4.68;2.92;;;9.50;99.90;;;;;;4957088;28;20402;-85
2022/09/21 02:43:51;;;;;;;4.82;2.83;;;9.40;99.90;;;;;;4977578;28;20926;-85
2022/09/21 02:46:30;;;;;;;7.10;2.83;;;9.50;99.90;;;;;;4966578;28;20442;-84
2022/09/21 02:49:03;;;;;;;4.28;2.60;;;9.40;99.90;;;;;;4957502;28;20463;-84
2022/09/21 02:51:35;;;;;;;4.35;2.70;;;9.40;99.90;;;;;;4962995;28;20453;-84
2022/09/21 02:54:06;;;;;;;3.87;2.90;;;9.40;99.90;;;;;;4962451;28;20762;-84
2022/09/21 02:56:34;;;;;;;5.88;2.55;;;9.40;99.90;;;;;;4958632;28;20942;-83
2022/09/21 02:59:04;;;;;;;2.95;2.30;;;9.30;99.90;;;;;;4972509;28;20406;-84
2022/09/21 03:01:33;;;;;;;7.23;2.80;;;9.30;99.90;;;;;;4978747;28;20410;-85
2022/09/21 03:04:01;;;;;;;3.60;2.50;;;9.40;99.90;;;;;;4968560;28;20390;-83
2022/09/21 03:06:30;;;;;;;4.27;2.67;;;9.40;99.90;;;;;;4972222;28;20410;-85
2022/09/21 03:08:57;;;;;;;3.95;2.20;;;9.40;99.90;;;;;;4964295;28;20952;-84
2022/09/21 03:11:25;;;;;;;4.68;2.50;;;9.30;99.90;;;;;;4972724;28;20913;-84
2022/09/21 03:13:53;;;;;;;5.53;2.90;;;9.30;99.90;;;;;;4965482;28;20436;-84
2022/09/21 03:16:21;;;;;;;3.20;2.47;;;9.30;99.90;;;;;;4959578;28;20440;-83
2022/09/21 03:18:49;;;;;;;4.60;2.80;;;9.30;99.90;;;;;;4964428;28;20739;-84
2022/09/21 03:21:16;;;;;;;5.50;2.63;;;9.30;99.90;;;;;;4962353;28;20422;-85
2022/09/21 03:23:44;;;;;;;3.38;2.42;;;9.30;99.90;;;;;;4971767;28;20619;-84
2022/09/21 03:26:12;;;;;;;3.38;2.50;;;9.20;99.90;;;;;;4962458;28;20404;-86
2022/09/21 03:28:39;;;;;;;4.97;2.70;;;9.20;99.90;;;;;;4979760;28;20925;-85
2022/09/21 03:31:07;;;;;;;4.38;2.78;;;9.20;99.90;;;;;;4965274;28;20529;-86
2022/09/21 03:33:35;;;;;;;6.00;2.90;;;9.10;99.90;;;;;;4963905;28;20413;-85
2022/09/21 03:36:03;;;;;;;4.65;3.13;;;9.10;99.90;;;;;;4976785;28;20406;-85
2022/09/21 03:38:31;;;;;;;4.20;2.83;;;9.00;99.90;;;;;;4962978;28;20402;-84
2022/09/21 03:40:58;;;;;;;4.78;2.85;;;9.10;99.90;;;;;;4958898;28;20432;-85
2022/09/21 03:43:27;;;;;;;3.38;2.63;;;9.10;99.90;;;;;;4953732;28;20953;-85
2022/09/21 03:45:54;;;;;;;4.05;2.50;;;9.20;99.90;;;;;;4962063;28;20457;-84
2022/09/21 03:48:22;;;;;;;5.70;2.85;;;9.10;99.90;;;;;;4969792;28;20417;-84
2022/09/21 03:50:50;;;;;;;3.55;2.90;;;9.10;99.90;;;;;;4958439;28;20418;-83
2022/09/21 03:53:17;;;;;;;3.87;3.00;;;9.10;99.90;;;;;;4961173;28;20439;-83
2022/09/21 03:55:45;;;;;;;4.10;3.00;;;9.20;99.90;;;;;;4962786;28;20403;-85
2022/09/21 03:58:13;;;;;;;5.45;2.97;;;9.20;99.90;;;;;;4960192;28;20451;-86
2022/09/21 04:00:41;;;;;;;3.50;2.83;;;9.20;99.90;;;;;;4961706;28;20462;-85
2022/09/21 04:03:09;;;;;;;5.40;3.00;;;9.20;99.90;;;;;;4981457;28;20438;-85
2022/09/21 04:05:38;;;;;;;4.63;3.00;;;9.10;99.90;;;;;;4963357;28;20438;-85
2022/09/21 04:08:06;;;;;;;4.80;3.33;;;9.10;99.90;;;;;;4961975;28;20390;-82
2022/09/21 04:10:34;;;;;;;5.90;3.53;;;9.10;99.90;;;;;;4971525;28;20893;-84
2022/09/21 04:13:02;;;;;;;3.43;2.83;;;9.10;99.90;;;;;;4985546;28;20930;-84
2022/09/21 04:15:30;;;;;;;7.53;3.30;;;9.10;99.90;;;;;;4964594;28;20404;-82
2022/09/21 04:17:58;;;;;;;4.80;3.50;;;9.20;99.90;;;;;;4963631;28;20463;-83
2022/09/21 04:20:25;;;;;;;5.20;3.50;;;9.20;99.90;;;;;;4962836;28;20447;-84
2022/09/21 04:22:53;;;;;;;6.87;3.50;;;9.20;99.90;;;;;;4970511;28;20411;-84
2022/09/21 04:25:21;;;;;;;6.45;3.40;;;9.10;99.90;;;;;;4962600;28;20492;-82
2022/09/21 04:27:48;;;;;;;5.00;3.42;;;9.10;99.90;;;;;;4965685;28;20829;-86
2022/09/21 04:30:16;;;;;;;4.60;3.58;;;9.10;99.90;;;;;;4960943;28;20422;-84
2022/09/21 04:32:44;;;;;;;8.55;4.32;;;9.10;99.90;;;;;;4963076;28;20501;-84
2022/09/21 04:35:11;;;;;;;4.32;3.08;;;9.10;99.90;;;;;;4979266;28;20419;-82
2022/09/21 04:37:39;;;;;;;7.25;4.57;;;9.10;99.90;;;;;;4975066;28;20404;-84
2022/09/21 04:40:08;;;;;;;8.13;3.45;;;9.20;99.90;;;;;;4962175;28;20505;-85
2022/09/21 04:42:36;;;;;;;6.65;3.78;;;9.20;99.90;;;;;;4954861;28;20910;-85
2022/09/21 04:45:04;;;;;;;7.18;3.70;;;9.20;99.90;;;;;;4951926;29;20423;-82
2022/09/21 04:47:32;;;;;;;5.95;3.78;;;9.10;99.90;;;;;;4979218;28;20469;-85
2022/09/21 04:49:59;;;;;;;4.95;3.65;;;9.10;99.90;;;;;;4953843;28;20491;-83
2022/09/21 04:52:27;;;;;;;5.78;3.47;;;9.20;99.90;;;;;;4955991;28;20393;-84
2022/09/21 04:54:55;;;;;;;6.35;4.10;;;9.10;99.90;;;;;;4974131;28;20406;-84
2022/09/21 04:57:22;;;;;;;5.72;3.53;;;9.10;99.90;;;;;;4977109;28;20412;-85
2022/09/21 04:59:50;;;;;;;7.53;3.88;;;9.10;99.90;;;;;;4977987;28;20499;-84
2022/09/21 05:02:17;;;;;;;5.15;3.33;;;9.20;99.90;;;;;;4985876;28;20429;-83
2022/09/21 05:04:45;;;;;;;5.60;3.60;;;9.20;99.90;;;;;;4964115;28;20406;-85
2022/09/21 05:07:17;;;;;;;4.47;3.67;;;9.30;99.90;;;;;;4961959;28;20484;-85
2022/09/21 05:10:03;;;;;;;6.15;3.83;;;9.30;99.90;;;;;;4966806;28;20392;-85
2022/09/21 05:12:32;;;;;;;7.93;4.10;;;9.20;99.90;;;;;;4966065;28;20461;-85
2022/09/21 05:14:59;;;;;;;5.70;3.80;;;9.30;99.90;;;;;;4962183;28;20443;-83
2022/09/21 05:17:27;;;;;;;8.77;4.53;;;9.20;99.90;;;;;;4966774;28;20415;-84
2022/09/21 05:19:54;;;;;;;10.55;6.15;;;9.20;99.90;;;;;;4965068;28;20404;-83
2022/09/21 05:22:22;;;;;;;6.00;3.50;;;9.20;99.90;;;;;;4980686;28;20774;-85
2022/09/21 05:24:49;;;;;;;8.33;4.73;;;9.20;99.90;;;;;;4955571;28;20408;-85
2022/09/21 05:27:17;;;;;;;7.25;3.80;;;9.30;99.90;;;;;;4955386;29;20401;-81
2022/09/21 05:29:44;;;;;;;8.55;4.53;;;9.30;99.90;;;;;;4953158;29;20392;-84
2022/09/21 05:32:21;;;;;;;8.13;4.63;;;9.30;99.90;;;;;;4970572;28;20504;-85
2022/09/21 05:35:05;;;;;;;8.65;4.35;;;9.20;99.90;;;;;;4970451;28;20414;-84
2022/09/21 05:37:57;;;;;;;7.63;4.35;;;9.30;99.90;;;;;;4955690;29;20396;-82
2022/09/21 05:40:25;;;;;;;6.20;3.97;;;9.20;99.90;;;;;;4970803;28;20400;-83
2022/09/21 05:42:53;;;;;;;5.72;3.90;;;9.30;99.90;;;;;;4955116;29;20401;-84
2022/09/21 05:45:21;;;;;;;7.20;4.20;;;9.30;99.90;;;;;;4971140;28;20400;-85
2022/09/21 05:48:04;;;;;;;6.43;4.40;;;9.30;99.90;;;;;;4971250;28;20402;-84
2022/09/21 05:50:43;;;;;;;6.73;4.43;;;9.40;99.90;;;;;;4956085;29;20891;-83
2022/09/21 05:53:35;;;;;;;4.88;3.58;;;9.30;99.90;;;;;;4956215;29;20400;-83
2022/09/21 05:56:26;;;;;;;6.47;3.97;;;9.40;99.90;;;;;;4971034;28;20401;-84
2022/09/21 05:58:54;;;;;;;4.88;4.13;;;9.40;99.90;;;;;;4945307;29;20405;-83
2022/09/21 06:01:24;;;;;;;4.20;3.60;;;9.40;99.90;;;;;;4956164;29;20428;-83
2022/09/21 06:03:53;;;;;;;5.22;3.90;;;9.50;99.90;;;;;;4971333;28;20470;-84
2022/09/21 06:06:20;;;;;;;5.93;4.00;;;9.50;99.90;;;;;;4955993;29;20396;-84
2022/09/21 06:08:48;;;;;;;5.70;3.70;;;9.50;99.90;;;;;;4970732;28;20458;-84
2022/09/21 06:11:16;;;;;;;5.40;3.63;;;9.50;99.90;;;;;;4955319;28;20415;-84
2022/09/21 06:13:43;;;;;;;4.22;3.80;;;9.50;99.90;;;;;;4956128;29;20396;-86
2022/09/21 06:16:11;;;;;;;4.90;3.65;;;9.50;99.90;;;;;;4970579;28;20931;-84
2022/09/21 06:18:40;;;;;;;5.45;3.70;;;9.50;99.90;;;;;;4955695;29;20396;-85
2022/09/21 06:21:08;;;;;;;5.28;4.15;;;9.60;99.90;;;;;;4955650;29;20455;-86
2022/09/21 06:23:36;;;;;;;4.23;3.70;;;9.60;99.90;;;;;;4954513;29;20415;-85
2022/09/21 06:26:03;;;;;;;5.43;4.30;;;9.60;99.90;;;;;;4970608;28;20392;-85
2022/09/21 06:28:31;;;;;;;6.88;4.43;;;9.60;99.90;;;;;;4955473;28;20898;-84
2022/09/21 06:30:59;;;;;;;5.43;4.30;;;9.60;99.90;;;;;;4955378;29;20438;-85
2022/09/21 06:33:26;;;;;;;6.18;4.47;;;9.60;99.90;;;;;;4970272;28;20399;-85
2022/09/21 06:35:59;;;;;;;5.38;4.18;;;9.70;99.90;;;;;;4970577;28;20824;-86
2022/09/21 06:38:28;;;;;;;4.78;3.92;;;9.70;99.90;;;;;;4955361;29;20400;-84
2022/09/21 06:41:01;;;;;;;6.28;4.63;;;9.70;99.90;;;;;;4955317;29;20404;-85
2022/09/21 06:43:30;;;;;;;6.00;3.88;;;9.70;99.90;;;;;;4955366;29;20400;-85
2022/09/21 06:46:01;;;;;;;5.53;4.18;;;9.80;99.90;;;;;;4970152;28;20537;-85
2022/09/21 06:48:31;;;;;;;6.00;4.30;;;9.70;99.90;;;;;;4970122;28;20396;-83
2022/09/21 06:51:04;;;;;;;6.32;4.65;;;9.80;99.90;;;;;;4954042;29;20480;-85
2022/09/21 06:53:33;;;;;;;4.87;4.30;;;9.80;99.90;;;;;;4955261;29;20399;-85
2022/09/21 06:56:08;;;;;;;5.43;4.33;;;9.90;99.90;;;;;;4970230;28;20424;-85
2022/09/21 06:58:36;;;;;;;4.03;3.55;;;9.90;99.90;;;;;;4955105;29;20432;-84
2022/09/21 07:01:08;;;;;;;5.53;4.00;;;9.90;99.90;;;;;;4954961;29;20396;-85
2022/09/21 07:03:37;;;;;;;5.28;3.80;;;9.90;99.90;;;;;;4954912;28;20748;-85
2022/09/21 07:06:06;;;;;;;6.18;4.10;;;9.90;99.90;;;;;;4954962;29;20396;-85
2022/09/21 07:08:38;;;;;;;5.10;3.80;;;9.90;99.90;;;;;;4954767;29;20396;-84
2022/09/21 07:11:26;;;;;;;4.80;3.95;;;10.00;99.90;;;;;;4954584;29;20412;-85
2022/09/21 07:13:55;;;;;;;4.63;3.83;;;10.00;99.90;;;;;;4969891;28;20399;-84
2022/09/21 07:16:23;;;;;;;5.15;3.67;;;10.00;99.90;;;;;;4954664;29;20741;-85
2022/09/21 07:18:50;;;;;;;4.97;4.00;;;10.10;99.90;;;;;;4969408;28;20887;-85
2022/09/21 07:21:18;;;;;;;5.40;4.47;;;10.10;99.90;;;;;;4954419;29;20418;-86
2022/09/21 07:23:46;;;;;;;6.27;4.00;;;10.10;99.90;;;;;;4968561;28;20432;-85
2022/09/21 07:26:14;;;;;;;4.55;3.78;;;10.10;99.90;;;;;;4954471;29;20423;-84
2022/09/21 07:28:42;;;;;;;5.30;4.07;;;10.10;99.90;;;;;;4969263;28;20396;-84
2022/09/21 07:31:14;;;;;;;4.63;3.70;;;10.20;99.90;;;;;;4954278;29;20414;-85
2022/09/21 07:33:45;;;;;;;5.20;3.70;;;10.20;99.90;;;;;;4953300;29;20404;-87
2022/09/21 07:36:13;;;;;;;5.28;3.78;;;10.20;99.90;;;;;;4954378;29;20418;-83
2022/09/21 07:38:43;;;;;;;4.97;3.73;;;10.20;99.90;;;;;;4954404;29;20396;-83
2022/09/21 07:41:12;;;;;;;6.10;3.53;;;10.20;99.90;;;;;;4954238;29;20396;-86
2022/09/21 07:43:40;;;;;;;3.97;3.15;;;10.20;99.90;;;;;;4954252;29;20396;-85
2022/09/21 07:46:10;;;;;;;4.82;3.70;;;10.20;99.90;;;;;;4969010;28;20404;-84
2022/09/21 07:48:38;;;;;;;4.88;3.60;;;10.20;99.90;;;;;;4954217;28;20412;-85
2022/09/21 07:51:09;;;;;;;3.60;3.03;;;10.30;99.90;;;;;;4954026;28;20408;-84
2022/09/21 07:53:39;;;;;;;3.85;3.40;;;10.40;99.90;;;;;;4969168;28;20432;-84
2022/09/21 07:56:13;;;;;;;4.45;3.92;;;10.40;99.90;;;;;;4953969;29;20416;-85
2022/09/21 08:01:28;;;;;;;4.20;3.53;;;10.50;99.90;;;;;;4954078;28;20404;-86
2022/09/21 08:03:57;;;;;;;5.47;4.07;;;10.50;99.90;;;;;;4968790;28;20397;-85
2022/09/21 08:06:29;;;;;;;4.07;3.50;;;10.50;99.90;;;;;;4953976;28;20451;-86
2022/09/21 08:08:56;;;;;;;4.53;3.70;;;10.60;99.90;;;;;;4953893;29;20456;-85
2022/09/21 08:11:25;;;;;;;3.42;3.13;;;10.60;99.90;;;;;;4968836;28;20436;-85
2022/09/21 08:13:59;;;;;;;4.95;3.42;;;10.70;99.90;;;;;;4968553;28;20400;-86
2022/09/21 08:16:28;;;;;;;3.75;3.40;;;10.70;99.90;;;;;;4953818;29;20475;-86
2022/09/21 08:18:56;;;;;;;3.77;3.30;;;10.70;99.90;;;;;;4968563;28;20396;-85
2022/09/21 08:21:23;;;;;;;3.47;2.75;;;10.70;99.90;;;;;;4953600;29;20475;-85
2022/09/21 08:23:51;;;;;;;3.83;3.13;;;10.80;99.90;;;;;;4953656;29;20404;-83
2022/09/21 08:26:19;;;;;;;4.53;3.05;;;10.80;99.90;;;;;;4968727;28;20404;-86
2022/09/21 08:28:48;;;;;;;5.38;3.28;;;10.90;99.90;;;;;;4953586;29;20483;-84
2022/09/21 08:31:18;;;;;;;3.55;2.97;;;10.90;99.90;;;;;;4953987;29;20491;-86
2022/09/21 08:33:47;;;;;;;4.17;3.03;;;11.00;99.90;;;;;;4954403;28;20744;-84
2022/09/21 08:36:14;;;;;;;4.38;3.08;;;11.10;99.90;;;;;;4972486;28;20491;-85
2022/09/21 08:38:42;;;;;;;3.42;2.60;;;11.10;99.90;;;;;;4972588;28;20810;-86
2022/09/21 08:41:21;;;;;;;5.03;2.83;;;11.10;99.90;;;;;;4957577;29;20411;-84
2022/09/21 08:43:54;;;;;;;2.80;2.40;;;11.10;99.90;;;;;;4957445;29;20404;-85
2022/09/21 08:46:28;;;;;;;2.97;2.40;;;11.20;99.90;;;;;;4956257;29;20395;-86
2022/09/21 08:49:02;;;;;;;3.55;2.30;;;11.30;99.90;;;;;;4972229;28;20399;-83
2022/09/21 08:51:35;;;;;;;2.58;2.05;;;11.30;99.90;;;;;;4972196;28;20412;-86
2022/09/21 08:54:44;;;;;;;3.00;2.30;;;11.30;99.90;;;;;;4972201;28;20535;-83
2022/09/21 08:57:13;;;;;;;2.58;1.98;;;11.30;99.90;;;;;;4967044;28;20408;-85
2022/09/21 08:59:44;;;;;;;2.50;2.13;;;11.40;99.90;;;;;;4957153;29;20432;-84
2022/09/21 09:02:41;;;;;;;3.13;2.10;;;11.50;99.90;;;;;;4957109;29;20396;-84
2022/09/21 09:05:27;;;;;;;2.78;2.05;;;11.50;99.90;;;;;;4972053;28;20510;-85
2022/09/21 09:08:10;;;;;;;2.50;2.00;;;11.50;99.90;;;;;;4971819;28;20525;-85
2022/09/21 09:10:40;;;;;;;2.63;2.10;;;11.40;99.90;;;;;;4971880;28;20432;-84
2022/09/21 09:13:37;;;;;;;2.50;2.13;;;11.40;99.90;;;;;;4956966;29;20774;-83
2022/09/21 09:16:18;;;;;;;2.40;2.20;;;11.40;99.90;;;;;;4971902;28;20389;-86
2022/09/21 09:18:58;;;;;;;2.50;2.17;;;11.40;99.90;;;;;;4971751;28;20400;-85
2022/09/21 09:21:33;;;;;;;2.88;2.30;;;11.40;99.90;;;;;;4956609;29;20486;-86
2022/09/21 09:24:00;;;;;;;4.75;2.50;;;11.50;99.90;;;;;;4956824;29;20466;-84
2022/09/21 09:26:44;;;;;;;4.15;2.70;;;11.60;99.90;;;;;;4956754;29;20396;-84
2022/09/21 09:29:36;;;;;;;3.03;2.53;;;11.70;99.90;;;;;;4956777;28;20396;-84
2022/09/21 09:32:09;;;;;;;3.33;2.67;;;11.80;99.90;;;;;;4962467;28;20415;-85
2022/09/21 09:34:47;;;;;;;2.90;2.50;;;11.80;99.90;;;;;;4956495;29;20554;-83
2022/09/21 09:37:16;;;;;;;3.10;2.70;;;11.90;99.90;;;;;;4956545;29;20402;-86
2022/09/21 09:39:56;;;;;;;3.70;2.50;;;12.00;99.90;;;;;;4956507;29;20846;-83
2022/09/21 09:42:55;;;;;;;2.67;2.30;;;12.00;99.90;;;;;;4956756;28;20867;-85
2022/09/21 09:45:42;;;;;;;3.83;2.80;;;12.10;99.90;;;;;;4955621;28;20408;-85
2022/09/21 09:48:46;;;;;;;2.70;2.47;;;12.00;99.90;;;;;;4956283;29;20392;-85
2022/09/21 09:51:20;;;;;;;3.53;2.50;;;12.10;99.90;;;;;;4956155;29;20412;-85
2022/09/21 09:53:48;;;;;;;4.20;2.80;;;12.10;99.90;;;;;;4956261;29;20959;-85
2022/09/21 09:56:17;;;;;;;3.38;2.50;;;12.20;99.90;;;;;;4956017;29;20922;-83
2022/09/21 09:59:05;;;;;;;4.68;3.20;;;12.20;99.90;;;;;;4956119;29;20398;-85
2022/09/21 10:01:41;;;;;;;3.00;2.45;;;12.20;99.90;;;;;;4956029;29;20626;-84
2022/09/21 10:04:14;;;;;;;3.78;2.25;;;12.10;99.90;;;;;;4956193;28;20487;-84
2022/09/21 10:06:43;;;;;;;3.95;2.38;;;12.00;99.90;;;;;;4956007;29;20770;-85
2022/09/21 10:09:23;;;;;;;3.45;2.70;;;12.00;99.90;;;;;;4956387;29;20400;-85
2022/09/21 10:12:14;;;;;;;3.20;2.83;;;12.00;99.90;;;;;;4955839;28;20416;-84
2022/09/21 10:14:50;;;;;;;8.30;7.70;;;12.10;99.90;;;;;;4970633;28;20882;-85
2022/09/21 10:17:18;;;;;;;2.97;2.63;;;12.10;99.90;;;;;;4955916;29;20393;-84
2022/09/21 10:19:46;;;;;;;3.53;3.20;;;12.00;99.90;;;;;;4955551;29;20950;-85
2022/09/21 10:22:17;;;;;;;5.07;3.47;;;12.00;99.90;;;;;;4955784;29;20396;-85
2022/09/21 10:24:53;;;;;;;3.78;2.63;;;12.00;99.90;;;;;;4970462;28;20451;-85
2022/09/21 10:27:27;;;;;;;2.75;2.50;;;12.00;99.90;;;;;;4970569;28;20423;-83
2022/09/21 10:29:56;;;;;;;2.90;2.40;;;12.10;99.90;;;;;;4955583;29;20403;-86
2022/09/21 10:32:25;;;;;;;3.85;2.65;;;12.00;99.90;;;;;;4970311;28;20439;-84
2022/09/21 10:35:02;;;;;;;3.03;2.50;;;12.00;99.90;;;;;;4955566;29;20400;-82
2022/09/21 10:37:40;;;;;;;2.90;2.50;;;12.10;99.90;;;;;;4955532;29;20404;-83
2022/09/21 10:40:20;;;;;;;3.38;2.58;;;12.10;99.90;;;;;;4955393;29;20503;-83
2022/09/21 10:42:50;;;;;;;4.47;2.60;;;12.00;99.90;;;;;;4970207;28;20392;-84
2022/09/21 10:45:20;;;;;;;3.55;2.80;;;12.10;99.90;;;;;;4970236;28;20410;-84
2022/09/21 10:48:16;;;;;;;3.47;2.85;;;12.00;99.90;;;;;;4954107;29;20784;-85
2022/09/21 10:50:50;;;;;;;3.17;2.50;;;12.10;99.90;;;;;;4953182;28;20943;-85
2022/09/21 10:53:27;;;;;;;2.92;2.40;;;12.10;99.90;;;;;;4955023;29;20416;-84
2022/09/21 10:56:06;;;;;;;4.10;2.58;;;12.10;99.90;;;;;;4969936;28;20974;-85
2022/09/21 10:59:12;;;;;;;3.08;2.60;;;12.10;99.90;;;;;;4970033;28;20399;-85
2022/09/21 11:01:45;;;;;;;3.20;2.40;;;12.20;99.90;;;;;;4955051;29;20427;-84
2022/09/21 11:04:27;;;;;;;3.60;2.60;;;12.10;99.90;;;;;;4955294;29;20402;-86
2022/09/21 11:07:23;;;;;;;3.83;2.73;;;12.20;99.90;;;;;;4969913;28;20795;-85
2022/09/21 11:10:16;;;;;;;3.28;2.60;;;12.30;99.90;;;;;;4954870;29;20897;-84
2022/09/21 11:12:54;;;;;;;3.67;2.33;;;12.30;99.90;;;;;;4954866;29;20978;-85
2022/09/21 11:15:32;;;;;;;3.00;2.65;;;12.20;99.90;;;;;;4954737;29;20871;-83
2022/09/21 11:18:10;;;;;;;3.10;2.78;;;12.20;99.90;;;;;;4954912;29;20408;-84
2022/09/21 11:21:04;;;;;;;4.03;3.00;;;12.20;99.90;;;;;;4954403;29;20408;-84
2022/09/21 11:24:02;;;;;;;4.97;3.22;;;12.30;99.90;;;;;;4954517;29;20415;-84
2022/09/21 11:26:34;;;;;;;6.22;3.00;;;12.30;99.90;;;;;;4935961;29;20509;-83
2022/09/21 11:29:09;;;;;;;3.90;2.50;;;12.30;99.90;;;;;;4954520;29;20430;-84
2022/09/21 11:31:55;;;;;;;3.85;3.10;;;12.40;99.90;;;;;;4954377;29;20403;-84
2022/09/21 11:34:43;;;;;;;3.75;2.45;;;12.40;99.90;;;;;;4954449;29;20393;-87
2022/09/21 11:37:47;;;;;;;4.55;2.90;;;12.50;99.90;;;;;;4954310;29;20467;-83
2022/09/21 11:41:00;;;;;;;3.45;2.53;;;12.50;99.90;;;;;;4957439;28;20404;-87
2022/09/21 11:43:42;;;;;;;3.55;2.90;;;12.60;99.90;;;;;;4932829;29;20410;-82
2022/09/21 11:46:39;;;;;;;3.75;2.63;;;12.70;99.90;;;;;;4932704;29;20976;-84
2022/09/21 11:49:26;;;;;;;3.60;2.80;;;12.70;99.90;;;;;;4945244;29;20406;-84
2022/09/21 11:52:03;;;;;;;4.88;2.72;;;12.80;99.90;;;;;;4968851;28;20831;-85
2022/09/21 11:54:42;;;;;;;3.35;2.90;;;12.70;99.90;;;;;;4954095;29;20424;-83
2022/09/21 11:57:23;;;;;;;4.53;2.88;;;12.80;99.90;;;;;;4952835;29;20397;-84
2022/09/21 12:00:14;;;;;;;2.90;2.60;;;13.00;99.90;;;;;;4968789;28;20418;-85
2022/09/21 12:02:58;;;;;;;4.77;2.70;;;13.30;99.90;;;;;;4953879;28;20427;-84
2022/09/21 12:05:49;;;;;;;4.43;2.40;;;13.50;99.90;;;;;;4968841;28;20400;-85
2022/09/21 12:08:29;;;;;;;3.28;2.22;;;13.40;99.90;;;;;;4968297;28;20793;-85
2022/09/21 12:11:41;;;;;;;2.70;2.23;;;13.30;99.90;;;;;;4953726;29;20830;-85
2022/09/21 12:14:27;;;;;;;3.55;2.30;;;13.70;99.90;;;;;;4943500;29;20476;-83
2022/09/21 12:17:01;;;;;;;3.57;2.23;;;13.70;99.90;;;;;;4953836;29;20431;-82
2022/09/21 12:19:49;;;;;;;3.70;2.80;;;13.60;99.90;;;;;;4954309;28;20431;-85
2022/09/21 12:22:31;;;;;;;2.73;2.40;;;13.30;99.90;;;;;;4952135;29;20439;-85
2022/09/21 12:25:07;;;;;;;3.53;2.47;;;13.50;99.90;;;;;;4952531;28;20396;-83
2022/09/21 12:28:23;;;;;;;3.97;3.13;;;13.80;99.90;;;;;;4968322;28;20395;-84
2022/09/21 12:31:00;;;;;;;4.20;2.53;;;13.90;99.90;;;;;;4944819;29;20417;-84
2022/09/21 12:33:47;;;;;;;3.88;2.78;;;14.00;99.90;;;;;;4932077;29;20457;-83
2022/09/21 12:36:33;;;;;;;3.15;2.67;;;14.00;99.90;;;;;;4958859;28;20407;-84
2022/09/21 12:39:17;;;;;;;4.10;2.50;;;14.30;99.90;;;;;;4953506;29;20398;-83
2022/09/21 12:42:17;;;;;;;3.20;2.80;;;14.40;99.90;;;;;;4952363;29;20409;-83
2022/09/21 12:45:13;;;;;;;4.25;2.70;;;14.40;99.90;;;;;;4953538;29;20442;-85
2022/09/21 12:47:59;;;;;;;2.87;2.57;;;14.40;99.90;;;;;;4953294;29;20898;-81
2022/09/21 12:50:47;;;;;;;3.13;1.90;;;14.60;99.90;;;;;;4953439;29;20404;-86
2022/09/21 12:53:18;;;;;;;2.10;1.60;;;14.60;99.90;;;;;;4953375;29;20447;-83
2022/09/21 12:55:55;;;;;;;3.78;1.63;;;14.50;99.90;;;;;;4953309;29;20396;-84
2022/09/21 12:58:40;;;;;;;2.20;1.52;;;14.50;99.90;;;;;;4953394;29;20400;-84
2022/09/21 13:01:35;;;;;;;3.33;1.90;;;14.50;99.90;;;;;;4952085;28;20424;-85
2022/09/21 13:04:18;;;;;;;3.85;1.70;;;14.60;99.90;;;;;;4953209;29;20495;-81
2022/09/21 13:07:17;;;;;;;1.95;1.75;;;14.70;99.90;;;;;;4953511;29;20402;-83
2022/09/21 13:09:45;;;;;;;3.53;2.10;;;14.80;99.90;;;;;;4952133;28;20408;-82
2022/09/21 13:12:43;;;;;;;6.00;2.42;;;14.90;99.90;;;;;;4951798;29;20408;-83
2022/09/21 13:15:26;;;;;;;2.67;1.75;;;15.00;99.90;;;;;;4965497;28;20404;-83
2022/09/21 13:17:59;;;;;;;2.90;1.80;;;15.10;99.90;;;;;;4952068;29;20401;-83
2022/09/21 13:20:34;;;;;;;2.03;1.67;;;15.20;99.90;;;;;;4953243;28;20416;-82
2022/09/21 13:23:02;;;;;;;2.40;1.40;;;15.20;99.90;;;;;;4956756;29;20490;-82
2022/09/21 13:25:36;;;;;;;1.80;1.42;;;15.20;99.90;;;;;;4956824;29;20479;-85
2022/09/21 13:28:15;;;;;;;1.70;1.40;;;15.10;99.90;;;;;;4956553;28;20400;-84
2022/09/21 13:30:46;;;;;;;2.58;1.50;;;14.90;99.90;;;;;;4956662;29;20404;-84
2022/09/21 13:33:19;;;;;;;1.77;1.58;;;14.60;99.90;;;;;;4971525;28;20451;-85
2022/09/21 13:35:47;;;;;;;1.98;1.65;;;14.40;99.90;;;;;;4955567;29;20411;-83